Time;durP1;ratioP1;P1;durP2;ratioP2;P2;SDS_P1;SDS_P2;PMS_P1;PMS_P2;Temp;Humidity;BMP_temperature;BMP_pressure;BME280_temperature;BME280_humidity;BME280_pressure;Samples;Min_cycle;Max_cycle;Signal;HPM_P1;HPM_P2
2021/08/06 00:00:12;;;;;;;0.70;0.40;;;18.10;77.20;;;;;;4871593;29;20037;-81
2021/08/06 00:02:38;;;;;;;0.40;0.40;;;18.10;77.20;;;;;;4873324;29;20057;-81
2021/08/06 00:05:04;;;;;;;0.40;0.40;;;18.10;77.20;;;;;;4873234;29;20073;-80
2021/08/06 00:07:30;;;;;;;0.43;0.43;;;18.10;77.20;;;;;;4892376;29;20049;-81
2021/08/06 00:09:55;;;;;;;0.32;0.32;;;18.10;77.20;;;;;;4872217;29;20400;-81
2021/08/06 00:12:21;;;;;;;0.75;0.40;;;18.10;77.30;;;;;;4891754;29;20056;-80
2021/08/06 00:14:47;;;;;;;0.30;0.30;;;18.20;77.40;;;;;;4892359;29;20051;-81
2021/08/06 00:17:13;;;;;;;0.45;0.45;;;18.10;77.30;;;;;;4873711;29;20061;-81
2021/08/06 00:19:38;;;;;;;0.32;0.30;;;18.10;77.40;;;;;;4870142;29;20044;-81
2021/08/06 00:22:04;;;;;;;0.50;0.40;;;18.20;77.40;;;;;;4884916;29;20041;-81
2021/08/06 00:24:30;;;;;;;0.30;0.30;;;18.10;77.40;;;;;;4851295;29;20136;-81
2021/08/06 00:26:56;;;;;;;0.47;0.47;;;18.10;77.50;;;;;;4868043;29;20131;-81
2021/08/06 00:29:22;;;;;;;0.35;0.30;;;18.10;77.50;;;;;;4888766;29;20043;-81
2021/08/06 00:31:48;;;;;;;0.52;0.45;;;18.10;77.60;;;;;;4872231;29;20053;-81
2021/08/06 00:34:13;;;;;;;0.68;0.50;;;18.10;77.60;;;;;;4859338;29;20478;-82
2021/08/06 00:36:39;;;;;;;0.52;0.50;;;18.20;77.80;;;;;;4893365;29;20037;-81
2021/08/06 00:39:05;;;;;;;0.50;0.50;;;18.10;77.80;;;;;;4892949;29;20082;-81
2021/08/06 00:41:30;;;;;;;0.40;0.40;;;18.10;78.50;;;;;;4886685;29;20060;-80
2021/08/06 00:43:56;;;;;;;1.30;0.60;;;18.10;77.90;;;;;;4882047;29;20033;-81
2021/08/06 00:46:22;;;;;;;0.50;0.50;;;18.10;78.10;;;;;;4864766;29;20488;-82
2021/08/06 00:48:48;;;;;;;0.35;0.35;;;18.10;78.20;;;;;;4864894;29;20048;-82
2021/08/06 00:51:14;;;;;;;0.55;0.40;;;18.00;78.20;;;;;;4869452;29;20136;-81
2021/08/06 00:53:40;;;;;;;0.30;0.30;;;18.00;78.20;;;;;;4854330;29;20072;-81
2021/08/06 00:56:09;;;;;;;0.30;0.30;;;18.10;78.30;;;;;;4870602;29;20057;-81
2021/08/06 00:58:36;;;;;;;0.47;0.47;;;18.00;78.90;;;;;;4884968;29;20038;-81
2021/08/06 01:01:01;;;;;;;0.30;0.30;;;18.00;78.30;;;;;;4887272;29;20043;-82
2021/08/06 01:03:48;;;;;;;0.30;0.30;;;18.00;78.40;;;;;;4887770;29;20100;-81
2021/08/06 01:06:22;;;;;;;0.40;0.40;;;18.00;78.50;;;;;;4892021;29;20056;-81
2021/08/06 01:09:09;;;;;;;0.40;0.40;;;18.00;78.50;;;;;;4892266;29;20041;-81
2021/08/06 01:11:38;;;;;;;0.30;0.30;;;18.00;78.50;;;;;;4889749;29;20049;-81
2021/08/06 01:14:06;;;;;;;0.30;0.30;;;18.00;78.50;;;;;;4864212;29;20508;-81
2021/08/06 01:16:34;;;;;;;0.68;0.30;;;18.00;78.60;;;;;;4866589;29;20043;-81
2021/08/06 01:19:13;;;;;;;0.30;0.30;;;18.00;78.60;;;;;;4866494;29;20067;-82
2021/08/06 01:21:48;;;;;;;0.30;0.30;;;18.00;78.60;;;;;;4887897;29;20073;-82
2021/08/06 01:24:19;;;;;;;0.70;0.40;;;18.00;78.60;;;;;;4884398;29;20567;-81
2021/08/06 01:26:47;;;;;;;0.40;0.40;;;18.00;78.60;;;;;;4866823;29;20426;-81
2021/08/06 01:29:13;;;;;;;0.45;0.45;;;18.00;78.60;;;;;;4867652;29;20076;-81
2021/08/06 01:31:40;;;;;;;0.30;0.30;;;18.00;78.60;;;;;;4888420;29;20953;-81
2021/08/06 01:34:06;;;;;;;0.30;0.30;;;18.00;78.70;;;;;;4868175;29;20204;-82
2021/08/06 01:36:32;;;;;;;0.20;0.20;;;18.10;78.70;;;;;;4868830;29;20037;-82
2021/08/06 01:38:58;;;;;;;0.47;0.40;;;18.00;78.70;;;;;;4858589;29;20033;-82
2021/08/06 01:41:50;;;;;;;0.30;0.30;;;18.10;78.80;;;;;;4875565;29;20045;-82
2021/08/06 01:44:30;;;;;;;0.35;0.32;;;18.10;78.80;;;;;;4871277;29;20110;-82
2021/08/06 01:47:10;;;;;;;0.50;0.50;;;18.10;78.80;;;;;;4872776;29;20053;-82
2021/08/06 01:49:45;;;;;;;0.50;0.50;;;18.10;78.80;;;;;;4872572;29;20073;-81
2021/08/06 01:52:15;;;;;;;0.40;0.40;;;18.10;78.80;;;;;;4857816;29;20077;-82
2021/08/06 01:54:42;;;;;;;0.65;0.52;;;18.10;78.70;;;;;;4867454;29;20456;-82
2021/08/06 01:57:10;;;;;;;0.63;0.63;;;18.20;78.70;;;;;;4863852;29;20520;-80
2021/08/06 01:59:37;;;;;;;0.40;0.40;;;18.20;78.60;;;;;;4870839;29;20046;-81
2021/08/06 02:02:03;;;;;;;0.60;0.60;;;18.20;78.50;;;;;;4873622;29;20045;-81
2021/08/06 02:04:29;;;;;;;0.50;0.50;;;18.30;78.40;;;;;;4873262;29;20061;-81
2021/08/06 02:06:55;;;;;;;0.40;0.40;;;18.30;78.40;;;;;;4856443;29;20443;-79
2021/08/06 02:09:22;;;;;;;0.43;0.40;;;18.30;78.30;;;;;;4847391;29;20062;-80
2021/08/06 02:11:50;;;;;;;0.50;0.50;;;18.30;78.20;;;;;;4863407;29;20057;-81
2021/08/06 02:14:18;;;;;;;0.70;0.70;;;18.40;78.10;;;;;;4880723;29;20029;-80
2021/08/06 02:16:44;;;;;;;1.20;0.90;;;18.50;78.10;;;;;;4864136;29;20075;-82
2021/08/06 02:19:13;;;;;;;1.25;0.82;;;18.50;78.10;;;;;;4880650;29;20511;-81
2021/08/06 02:21:40;;;;;;;0.70;0.60;;;18.40;78.00;;;;;;4863791;29;20061;-80
2021/08/06 02:24:10;;;;;;;1.02;0.70;;;18.40;78.10;;;;;;4878328;29;20041;-81
2021/08/06 02:26:38;;;;;;;0.73;0.70;;;18.40;78.60;;;;;;4863784;29;20124;-80
2021/08/06 02:29:07;;;;;;;0.75;0.70;;;18.30;78.40;;;;;;4880224;29;20787;-80
2021/08/06 02:31:33;;;;;;;1.65;0.57;;;18.30;78.60;;;;;;4847760;29;20053;-80
2021/08/06 02:34:00;;;;;;;0.65;0.52;;;18.30;78.70;;;;;;4879760;29;20037;-81
2021/08/06 02:36:26;;;;;;;1.90;0.50;;;18.30;78.80;;;;;;4863487;29;20048;-81
2021/08/06 02:38:56;;;;;;;0.50;0.50;;;18.30;78.90;;;;;;4863677;29;20037;-81
2021/08/06 02:41:22;;;;;;;0.50;0.50;;;18.30;79.00;;;;;;4880605;29;20403;-81
2021/08/06 02:43:48;;;;;;;0.65;0.60;;;18.30;79.00;;;;;;4880575;29;20282;-81
2021/08/06 02:46:15;;;;;;;0.40;0.40;;;18.20;79.00;;;;;;4863507;29;20033;-81
2021/08/06 02:48:41;;;;;;;0.60;0.60;;;18.20;79.10;;;;;;4880696;29;20120;-81
2021/08/06 02:51:07;;;;;;;0.30;0.30;;;18.20;79.30;;;;;;4863769;29;20060;-81
2021/08/06 02:53:33;;;;;;;0.30;0.30;;;18.20;79.40;;;;;;4848137;29;20033;-81
2021/08/06 02:55:59;;;;;;;0.30;0.30;;;18.20;79.40;;;;;;4880431;29;20377;-81
2021/08/06 02:58:25;;;;;;;0.40;0.40;;;18.20;79.50;;;;;;4868126;29;20045;-80
2021/08/06 03:00:51;;;;;;;0.40;0.30;;;18.20;79.60;;;;;;4872102;29;20045;-81
2021/08/06 03:03:16;;;;;;;0.30;0.30;;;18.20;79.60;;;;;;4865114;29;20071;-81
2021/08/06 03:05:42;;;;;;;0.30;0.30;;;18.10;79.60;;;;;;4852117;29;20072;-82
2021/08/06 03:08:08;;;;;;;0.30;0.30;;;18.10;79.70;;;;;;4849053;29;20050;-82
2021/08/06 03:10:34;;;;;;;0.60;0.30;;;18.10;79.80;;;;;;4848906;29;20045;-81
2021/08/06 03:13:01;;;;;;;0.32;0.30;;;18.10;79.80;;;;;;4847207;29;20041;-81
2021/08/06 03:15:26;;;;;;;0.32;0.32;;;18.10;79.90;;;;;;4864219;29;20454;-81
2021/08/06 03:17:52;;;;;;;0.40;0.40;;;18.10;79.90;;;;;;4834040;29;20082;-81
2021/08/06 03:20:21;;;;;;;0.30;0.30;;;18.10;80.00;;;;;;4862621;29;20503;-81
2021/08/06 03:22:48;;;;;;;0.35;0.35;;;18.10;80.00;;;;;;4863035;29;20037;-81
2021/08/06 03:25:13;;;;;;;0.50;0.30;;;18.00;80.00;;;;;;4865428;29;20052;-81
2021/08/06 03:27:39;;;;;;;0.30;0.30;;;18.10;80.10;;;;;;4857125;29;20829;-80
2021/08/06 03:30:07;;;;;;;0.30;0.30;;;18.10;80.10;;;;;;4872211;29;20078;-81
2021/08/06 03:32:33;;;;;;;0.40;0.40;;;18.10;80.20;;;;;;4853513;29;20052;-80
2021/08/06 03:34:59;;;;;;;0.30;0.30;;;18.20;80.50;;;;;;4871148;29;20033;-80
2021/08/06 03:37:24;;;;;;;1.00;0.30;;;18.10;80.20;;;;;;4873285;29;20463;-80
2021/08/06 03:39:50;;;;;;;0.30;0.30;;;18.10;80.20;;;;;;4853080;29;20044;-80
2021/08/06 03:42:16;;;;;;;0.30;0.30;;;18.10;80.20;;;;;;4887161;29;20053;-80
2021/08/06 03:44:42;;;;;;;0.90;0.38;;;18.10;80.20;;;;;;4869250;29;20056;-81
2021/08/06 03:47:07;;;;;;;0.30;0.30;;;18.10;80.20;;;;;;4851007;29;20048;-81
2021/08/06 03:49:33;;;;;;;0.43;0.40;;;18.10;80.20;;;;;;4866935;29;20136;-81
2021/08/06 03:51:59;;;;;;;0.43;0.43;;;18.10;80.20;;;;;;4883951;29;20055;-80
2021/08/06 03:54:25;;;;;;;0.20;0.20;;;18.10;80.30;;;;;;4850229;29;20037;-81
2021/08/06 03:56:50;;;;;;;0.40;0.40;;;18.10;80.30;;;;;;4865967;29;20071;-81
2021/08/06 03:59:16;;;;;;;0.45;0.45;;;18.00;80.40;;;;;;4849966;29;20045;-81
2021/08/06 04:01:41;;;;;;;0.65;0.60;;;18.00;80.40;;;;;;4865140;29;20052;-82
2021/08/06 04:04:08;;;;;;;0.52;0.43;;;17.90;80.50;;;;;;4851873;29;20033;-81
2021/08/06 04:06:34;;;;;;;0.80;0.55;;;17.90;80.60;;;;;;4866372;29;20040;-81
2021/08/06 04:09:00;;;;;;;0.60;0.60;;;17.90;80.80;;;;;;4880445;29;20120;-82
2021/08/06 04:11:26;;;;;;;0.65;0.60;;;17.80;80.80;;;;;;4864778;29;20057;-83
2021/08/06 04:13:51;;;;;;;0.43;0.43;;;17.80;80.90;;;;;;4847647;29;20044;-83
2021/08/06 04:16:17;;;;;;;0.40;0.40;;;17.70;81.00;;;;;;4880004;29;20049;-83
2021/08/06 04:18:43;;;;;;;0.57;0.55;;;17.70;81.20;;;;;;4862531;29;20033;-83
2021/08/06 04:21:09;;;;;;;0.50;0.50;;;17.60;81.40;;;;;;4846537;29;20041;-83
2021/08/06 04:23:34;;;;;;;0.68;0.40;;;17.60;81.50;;;;;;4861007;29;20120;-83
2021/08/06 04:26:00;;;;;;;0.68;0.47;;;17.60;81.70;;;;;;4846735;29;20045;-83
2021/08/06 04:28:26;;;;;;;0.93;0.30;;;17.50;81.80;;;;;;4846497;29;20717;-84
2021/08/06 04:30:52;;;;;;;0.93;0.50;;;17.60;81.90;;;;;;4846877;29;20052;-82
2021/08/06 04:33:17;;;;;;;0.50;0.50;;;17.60;82.00;;;;;;4877819;29;20037;-83
2021/08/06 04:35:43;;;;;;;0.35;0.35;;;17.60;82.10;;;;;;4846454;29;20052;-83
2021/08/06 04:38:09;;;;;;;0.40;0.40;;;17.50;82.10;;;;;;4846369;29;20492;-84
2021/08/06 04:40:37;;;;;;;0.20;0.20;;;17.60;82.20;;;;;;4859017;29;20033;-84
2021/08/06 04:43:02;;;;;;;0.20;0.20;;;17.60;82.20;;;;;;4858943;29;20045;-83
2021/08/06 04:45:28;;;;;;;0.25;0.25;;;17.60;82.20;;;;;;4843190;29;20416;-83
2021/08/06 04:48:00;;;;;;;0.30;0.30;;;17.60;82.20;;;;;;4860290;29;20034;-83
2021/08/06 04:50:26;;;;;;;0.35;0.35;;;17.60;82.20;;;;;;4858698;29;20405;-83
2021/08/06 04:52:52;;;;;;;0.30;0.30;;;17.60;82.30;;;;;;4860699;29;20057;-83
2021/08/06 04:55:18;;;;;;;0.40;0.40;;;17.60;82.40;;;;;;4847826;29;20512;-83
2021/08/06 04:57:45;;;;;;;0.30;0.30;;;17.60;82.50;;;;;;4863990;29;20061;-83
2021/08/06 05:00:11;;;;;;;0.25;0.22;;;17.60;82.50;;;;;;4865914;29;20128;-83
2021/08/06 05:02:37;;;;;;;0.32;0.32;;;17.60;82.50;;;;;;4864403;29;20045;-83
2021/08/06 05:05:04;;;;;;;0.20;0.20;;;17.70;82.50;;;;;;4890117;29;20073;-83
2021/08/06 05:07:30;;;;;;;0.35;0.30;;;17.70;82.50;;;;;;4881959;29;20052;-83
2021/08/06 05:09:58;;;;;;;0.35;0.35;;;17.70;82.50;;;;;;4896156;29;20037;-82
2021/08/06 05:12:23;;;;;;;0.32;0.32;;;17.60;82.40;;;;;;4878373;29;20051;-82
2021/08/06 05:14:49;;;;;;;0.28;0.28;;;17.70;82.50;;;;;;4853002;29;20497;-83
2021/08/06 05:17:15;;;;;;;0.28;0.28;;;17.80;82.60;;;;;;4872601;29;20037;-83
2021/08/06 05:19:41;;;;;;;0.30;0.30;;;17.70;82.60;;;;;;4877168;29;20040;-83
2021/08/06 05:22:06;;;;;;;0.22;0.20;;;17.80;82.60;;;;;;4876030;29;20052;-84
2021/08/06 05:24:32;;;;;;;0.20;0.20;;;17.70;82.50;;;;;;4855552;29;20076;-83
2021/08/06 05:26:58;;;;;;;0.30;0.30;;;17.80;82.60;;;;;;4861339;29;20057;-84
2021/08/06 05:29:24;;;;;;;1.65;0.30;;;17.80;82.60;;;;;;4842963;29;20072;-83
2021/08/06 05:31:49;;;;;;;0.40;0.40;;;17.80;82.60;;;;;;4857817;29;20477;-83
2021/08/06 05:34:15;;;;;;;0.77;0.40;;;17.80;82.60;;;;;;4857622;29;20065;-84
2021/08/06 05:36:41;;;;;;;0.32;0.32;;;17.80;82.60;;;;;;4858556;29;20073;-83
2021/08/06 05:39:06;;;;;;;0.28;0.28;;;17.90;82.70;;;;;;4857634;29;20049;-83
2021/08/06 05:41:32;;;;;;;0.35;0.28;;;17.80;82.60;;;;;;4842341;29;20041;-83
2021/08/06 05:43:57;;;;;;;0.32;0.30;;;17.90;82.70;;;;;;4859021;29;20497;-83
2021/08/06 05:46:23;;;;;;;0.70;0.50;;;17.90;82.70;;;;;;4860528;29;20408;-83
2021/08/06 05:48:50;;;;;;;0.30;0.30;;;17.90;82.70;;;;;;4845289;29;20056;-84
2021/08/06 05:51:15;;;;;;;0.30;0.30;;;17.90;82.70;;;;;;4844863;29;20041;-83
2021/08/06 05:53:41;;;;;;;0.82;0.30;;;17.90;82.70;;;;;;4860635;29;20041;-83
2021/08/06 05:56:07;;;;;;;0.30;0.30;;;17.90;82.70;;;;;;4845212;29;20046;-83
2021/08/06 05:58:32;;;;;;;1.00;0.60;;;17.90;82.80;;;;;;4861923;29;20485;-83
2021/08/06 06:00:58;;;;;;;0.68;0.40;;;17.90;82.80;;;;;;4860570;29;20056;-84
2021/08/06 06:03:24;;;;;;;0.82;0.60;;;17.90;82.90;;;;;;4863473;29;20144;-84
2021/08/06 06:05:50;;;;;;;0.63;0.60;;;17.90;83.00;;;;;;4858376;29;20045;-83
2021/08/06 06:08:16;;;;;;;0.30;0.30;;;17.90;83.00;;;;;;4860731;29;20073;-84
2021/08/06 06:10:42;;;;;;;0.45;0.45;;;17.90;83.10;;;;;;4860417;29;20069;-83
2021/08/06 06:13:08;;;;;;;0.40;0.40;;;17.90;83.10;;;;;;4864227;29;20136;-83
2021/08/06 06:15:34;;;;;;;0.50;0.50;;;17.90;83.10;;;;;;4847975;29;20037;-82
2021/08/06 06:18:00;;;;;;;0.40;0.40;;;17.90;83.20;;;;;;4863561;29;20068;-83
2021/08/06 06:20:26;;;;;;;0.60;0.40;;;17.90;83.30;;;;;;4847783;29;20079;-83
2021/08/06 06:22:51;;;;;;;0.30;0.30;;;17.90;83.20;;;;;;4847570;29;20088;-83
2021/08/06 06:25:18;;;;;;;0.43;0.43;;;17.80;83.40;;;;;;4844441;29;20037;-83
2021/08/06 06:27:56;;;;;;;0.40;0.40;;;17.80;83.60;;;;;;4860117;29;20038;-83
2021/08/06 06:30:25;;;;;;;0.38;0.38;;;17.70;83.90;;;;;;4848037;29;20040;-83
2021/08/06 06:32:52;;;;;;;0.40;0.40;;;17.70;83.90;;;;;;4846892;29;20041;-84
2021/08/06 06:35:18;;;;;;;0.43;0.43;;;17.70;84.00;;;;;;4862997;29;20045;-84
2021/08/06 06:37:44;;;;;;;0.40;0.40;;;17.70;84.00;;;;;;4863085;29;20033;-84
2021/08/06 06:40:10;;;;;;;0.80;0.52;;;17.70;84.00;;;;;;4847568;29;20044;-83
2021/08/06 06:42:36;;;;;;;0.40;0.40;;;17.80;84.10;;;;;;4846493;29;20104;-82
2021/08/06 06:45:03;;;;;;;0.35;0.35;;;17.70;84.00;;;;;;4862914;29;20496;-82
2021/08/06 06:47:39;;;;;;;0.35;0.35;;;17.80;84.10;;;;;;4862792;29;20081;-82
2021/08/06 06:50:09;;;;;;;0.52;0.50;;;17.70;84.20;;;;;;4876905;29;20048;-82
2021/08/06 06:52:38;;;;;;;0.35;0.35;;;17.80;84.10;;;;;;4861220;29;20057;-82
2021/08/06 06:55:06;;;;;;;0.38;0.38;;;17.80;84.10;;;;;;4862994;29;20037;-82
2021/08/06 06:57:31;;;;;;;0.52;0.40;;;17.90;84.20;;;;;;4860303;29;20048;-82
2021/08/06 06:59:57;;;;;;;0.55;0.40;;;17.90;84.20;;;;;;4847132;29;20033;-81
2021/08/06 07:02:23;;;;;;;0.30;0.30;;;18.00;84.10;;;;;;4847185;29;20037;-80
2021/08/06 07:08:14;;;;;;;0.47;0.40;;;18.20;83.90;;;;;;4800638;29;20580;-88
2021/08/06 07:10:40;;;;;;;0.60;0.60;;;18.40;83.70;;;;;;4797105;29;20087;-82
2021/08/06 07:13:05;;;;;;;0.47;0.47;;;18.40;83.40;;;;;;4806713;29;20533;-83
2021/08/06 07:15:31;;;;;;;0.77;0.63;;;18.50;83.20;;;;;;4791800;29;20035;-84
2021/08/06 07:17:57;;;;;;;0.70;0.68;;;18.50;83.20;;;;;;4821838;29;20042;-83
2021/08/06 07:20:23;;;;;;;0.50;0.50;;;18.50;83.20;;;;;;4821803;29;20034;-83
2021/08/06 07:22:49;;;;;;;0.80;0.60;;;18.60;83.30;;;;;;4821911;29;20134;-84
2021/08/06 07:25:16;;;;;;;0.80;0.80;;;18.60;83.20;;;;;;4791599;29;20046;-83
2021/08/06 07:27:43;;;;;;;0.80;0.80;;;18.60;83.20;;;;;;4791795;29;20043;-82
2021/08/06 07:30:09;;;;;;;0.85;0.85;;;18.60;83.30;;;;;;4822112;29;20038;-82
2021/08/06 07:32:35;;;;;;;0.70;0.70;;;18.60;83.40;;;;;;4827998;29;20157;-83
2021/08/06 07:35:02;;;;;;;0.98;0.75;;;18.70;83.70;;;;;;4859081;29;20037;-82
2021/08/06 07:37:28;;;;;;;0.82;0.80;;;18.50;83.70;;;;;;4828695;29;20089;-83
2021/08/06 07:39:54;;;;;;;0.80;0.80;;;18.60;83.70;;;;;;4862525;29;20041;-82
2021/08/06 07:42:20;;;;;;;2.92;0.88;;;18.60;83.80;;;;;;4862192;29;20051;-82
2021/08/06 07:44:46;;;;;;;0.95;0.85;;;18.60;83.80;;;;;;4862301;29;20045;-81
2021/08/06 07:47:12;;;;;;;1.20;0.88;;;18.60;83.70;;;;;;4862031;29;20041;-80
2021/08/06 07:49:41;;;;;;;0.52;0.52;;;18.60;83.80;;;;;;4859633;29;20049;-80
2021/08/06 07:52:11;;;;;;;0.80;0.80;;;18.60;83.80;;;;;;4845428;29;20042;-80
2021/08/06 07:54:36;;;;;;;0.77;0.73;;;18.70;83.70;;;;;;4858587;29;20060;-79
2021/08/06 07:57:11;;;;;;;0.90;0.60;;;18.70;83.70;;;;;;4843579;29;20041;-81
2021/08/06 07:59:38;;;;;;;0.80;0.80;;;18.90;83.90;;;;;;4844996;29;20069;-80
2021/08/06 08:02:05;;;;;;;1.00;0.90;;;18.90;83.50;;;;;;4843022;29;20552;-80
2021/08/06 08:04:30;;;;;;;1.20;1.00;;;19.10;83.20;;;;;;4844910;29;20082;-80
2021/08/06 08:06:56;;;;;;;1.00;0.95;;;19.10;82.90;;;;;;4862647;29;20078;-80
2021/08/06 08:09:22;;;;;;;0.80;0.80;;;19.20;83.00;;;;;;4852384;29;20045;-80
2021/08/06 08:11:47;;;;;;;0.90;0.80;;;19.10;82.90;;;;;;4869770;29;20049;-82
2021/08/06 08:14:13;;;;;;;0.68;0.68;;;19.30;82.80;;;;;;4847942;29;20047;-83
2021/08/06 08:16:39;;;;;;;1.00;0.90;;;19.30;82.70;;;;;;4850366;29;20041;-82
2021/08/06 08:19:05;;;;;;;0.70;0.70;;;19.30;82.80;;;;;;4867463;29;20033;-84
2021/08/06 08:21:42;;;;;;;1.60;0.90;;;19.20;82.90;;;;;;4849114;29;20058;-84
2021/08/06 08:24:08;;;;;;;2.17;1.35;;;19.20;82.90;;;;;;4815157;29;20061;-82
2021/08/06 08:26:39;;;;;;;1.10;1.00;;;19.20;82.90;;;;;;4811533;29;20070;-82
2021/08/06 08:29:05;;;;;;;1.42;1.10;;;19.10;83.10;;;;;;4791950;29;20221;-79
2021/08/06 08:31:31;;;;;;;1.25;1.15;;;19.10;83.10;;;;;;4821677;29;20501;-79
2021/08/06 08:33:57;;;;;;;1.63;0.93;;;19.20;83.10;;;;;;4796336;29;20051;-79
2021/08/06 08:36:22;;;;;;;1.27;1.05;;;19.20;82.80;;;;;;4811149;29;20547;-79
2021/08/06 08:38:48;;;;;;;1.05;0.90;;;19.30;82.80;;;;;;4811918;29;20042;-79
2021/08/06 08:41:15;;;;;;;1.20;1.10;;;19.20;82.70;;;;;;4806703;29;20043;-77
2021/08/06 08:43:42;;;;;;;1.63;1.10;;;19.30;83.00;;;;;;4820580;29;20137;-78
2021/08/06 08:46:10;;;;;;;0.98;0.88;;;19.40;82.70;;;;;;4805999;29;20077;-80
2021/08/06 08:52:08;;;;;;;1.13;0.98;;;19.50;82.30;;;;;;4695584;30;20057;-80
2021/08/06 08:54:36;;;;;;;1.20;1.10;;;19.60;81.90;;;;;;4716435;30;20507;-79
2021/08/06 08:57:02;;;;;;;1.27;1.13;;;19.60;81.70;;;;;;4764959;30;20048;-79
2021/08/06 08:59:29;;;;;;;1.20;1.00;;;19.60;81.90;;;;;;4767277;30;20422;-79
2021/08/06 09:01:54;;;;;;;1.73;1.10;;;19.70;81.90;;;;;;4766591;30;20118;-78
2021/08/06 09:04:24;;;;;;;1.27;1.17;;;19.80;81.60;;;;;;4766462;30;20131;-78
2021/08/06 09:06:51;;;;;;;1.10;1.00;;;19.90;81.30;;;;;;4766116;30;20048;-82
2021/08/06 09:09:21;;;;;;;1.70;1.10;;;20.00;81.30;;;;;;4772738;30;20062;-82
2021/08/06 09:12:23;;;;;;;1.58;1.30;;;20.10;81.00;;;;;;4737246;30;20056;-84
2021/08/06 09:14:50;;;;;;;1.42;1.30;;;20.20;80.40;;;;;;4693145;30;20041;-82
2021/08/06 09:17:16;;;;;;;2.92;1.73;;;20.40;80.20;;;;;;4713990;30;20597;-81
2021/08/06 09:19:53;;;;;;;2.30;1.55;;;20.30;79.90;;;;;;4716326;30;20049;-81
2021/08/06 09:22:24;;;;;;;1.10;1.00;;;20.20;80.20;;;;;;4723993;30;20065;-76
2021/08/06 09:25:08;;;;;;;1.30;0.98;;;20.30;80.40;;;;;;4716745;30;20076;-77
2021/08/06 09:27:38;;;;;;;1.58;1.40;;;20.40;80.00;;;;;;4727352;30;20169;-80
2021/08/06 09:30:08;;;;;;;0.95;0.95;;;20.40;80.00;;;;;;4772096;30;20058;-79
2021/08/06 09:32:53;;;;;;;1.30;0.90;;;20.60;79.80;;;;;;4790504;30;20055;-80
2021/08/06 09:35:22;;;;;;;1.20;1.10;;;20.70;79.50;;;;;;4789942;29;20051;-82
2021/08/06 09:37:48;;;;;;;2.15;1.20;;;20.70;79.00;;;;;;4786697;29;20043;-85
2021/08/06 09:40:18;;;;;;;1.35;1.17;;;20.70;79.10;;;;;;4787200;29;20079;-82
2021/08/06 09:42:54;;;;;;;1.37;1.00;;;20.60;79.40;;;;;;4798443;29;20088;-79
2021/08/06 09:45:22;;;;;;;1.20;0.98;;;20.70;79.30;;;;;;4824372;29;20054;-80
2021/08/06 09:47:55;;;;;;;0.88;0.88;;;20.70;79.00;;;;;;4847217;29;20557;-79
2021/08/06 09:50:24;;;;;;;0.98;0.80;;;20.70;79.00;;;;;;4842791;29;20204;-83
2021/08/06 09:52:52;;;;;;;1.65;0.90;;;20.80;79.30;;;;;;4839249;29;20046;-77
2021/08/06 09:55:26;;;;;;;1.38;0.80;;;20.90;78.90;;;;;;4881334;29;20048;-76
2021/08/06 09:57:53;;;;;;;1.65;1.00;;;21.10;78.40;;;;;;4881628;29;20056;-80
2021/08/06 10:00:21;;;;;;;1.77;1.05;;;21.30;77.90;;;;;;4851286;29;20060;-76
2021/08/06 10:02:47;;;;;;;1.63;1.10;;;21.30;77.50;;;;;;4898846;29;20083;-76
2021/08/06 10:05:16;;;;;;;1.05;0.95;;;21.30;77.20;;;;;;4882308;29;20452;-78
2021/08/06 10:07:45;;;;;;;1.05;0.90;;;21.30;77.30;;;;;;4881999;29;20131;-76
2021/08/06 10:10:19;;;;;;;0.90;0.80;;;21.30;77.30;;;;;;4899174;29;20099;-74
2021/08/06 10:12:46;;;;;;;0.90;0.90;;;21.20;77.40;;;;;;4899082;29;20044;-75
2021/08/06 10:15:14;;;;;;;1.45;0.80;;;21.00;77.60;;;;;;4885746;29;20440;-76
2021/08/06 10:17:40;;;;;;;1.27;0.82;;;20.90;78.10;;;;;;4885670;29;20092;-78
2021/08/06 10:20:08;;;;;;;0.70;0.70;;;20.80;78.40;;;;;;4887179;29;20092;-78
2021/08/06 10:22:34;;;;;;;1.15;0.90;;;20.70;78.30;;;;;;4909501;29;20060;-78
2021/08/06 10:25:06;;;;;;;1.52;0.90;;;20.70;78.40;;;;;;4875082;29;20040;-78
2021/08/06 10:27:34;;;;;;;1.88;0.90;;;20.80;78.50;;;;;;4890068;29;20164;-78
2021/08/06 10:30:10;;;;;;;1.17;0.90;;;20.70;78.10;;;;;;4910172;29;20066;-78
2021/08/06 10:32:37;;;;;;;1.38;0.90;;;20.80;77.70;;;;;;4913092;29;20067;-77
2021/08/06 10:35:18;;;;;;;1.00;0.70;;;20.90;77.70;;;;;;4893743;29;20563;-78
2021/08/06 10:37:59;;;;;;;1.38;0.85;;;20.90;78.20;;;;;;4890692;29;20037;-78
2021/08/06 10:40:56;;;;;;;1.98;0.70;;;20.90;77.30;;;;;;4894809;29;20136;-77
2021/08/06 10:43:40;;;;;;;2.15;0.82;;;21.00;77.30;;;;;;4878982;29;20045;-79
2021/08/06 10:46:07;;;;;;;1.33;0.70;;;21.00;77.00;;;;;;4909175;29;20049;-80
2021/08/06 10:48:35;;;;;;;1.00;0.80;;;21.10;76.80;;;;;;4909618;29;20043;-79
2021/08/06 10:51:23;;;;;;;2.00;1.05;;;21.10;76.60;;;;;;4876381;29;20036;-78
2021/08/06 10:54:24;;;;;;;1.33;0.75;;;21.10;76.60;;;;;;4863098;29;20092;-78
2021/08/06 10:57:10;;;;;;;0.88;0.65;;;21.10;76.40;;;;;;4884384;29;20040;-80
2021/08/06 10:59:39;;;;;;;0.75;0.75;;;21.30;76.20;;;;;;4895400;29;20052;-77
2021/08/06 11:02:04;;;;;;;1.25;0.60;;;21.40;76.00;;;;;;4910276;29;20048;-78
2021/08/06 11:04:45;;;;;;;1.02;0.75;;;21.40;75.90;;;;;;4892880;29;20123;-79
2021/08/06 11:07:31;;;;;;;1.00;0.57;;;21.40;76.00;;;;;;4905473;29;20051;-78
2021/08/06 11:09:58;;;;;;;0.77;0.65;;;21.30;76.10;;;;;;4862067;29;20055;-79
2021/08/06 11:12:33;;;;;;;0.70;0.70;;;21.30;76.20;;;;;;4894558;29;20049;-79
2021/08/06 11:15:04;;;;;;;1.58;0.68;;;21.30;76.50;;;;;;4915222;29;20048;-82
2021/08/06 11:17:41;;;;;;;1.50;0.82;;;21.30;76.10;;;;;;4885237;29;20615;-83
2021/08/06 11:20:14;;;;;;;1.00;0.90;;;21.30;75.50;;;;;;4866549;29;20120;-85
2021/08/06 11:22:43;;;;;;;0.85;0.70;;;21.30;75.70;;;;;;4894543;29;20037;-84
2021/08/06 11:25:17;;;;;;;2.13;0.90;;;21.30;75.50;;;;;;4877271;29;20052;-83
2021/08/06 11:27:46;;;;;;;1.05;0.70;;;21.30;75.40;;;;;;4864831;29;20044;-81
2021/08/06 11:30:25;;;;;;;1.13;0.80;;;21.40;75.30;;;;;;4892276;29;20049;-83
2021/08/06 11:32:59;;;;;;;0.70;0.70;;;21.60;75.10;;;;;;4883902;29;20045;-82
2021/08/06 11:35:34;;;;;;;0.82;0.65;;;21.80;74.80;;;;;;4870671;29;20037;-82
2021/08/06 11:38:04;;;;;;;0.65;0.50;;;21.90;74.00;;;;;;4843432;29;20053;-84
2021/08/06 11:40:33;;;;;;;1.15;0.80;;;22.00;73.70;;;;;;4875655;29;20041;-82
2021/08/06 11:43:14;;;;;;;0.98;0.90;;;22.10;73.70;;;;;;4891711;29;20113;-83
2021/08/06 11:45:41;;;;;;;0.80;0.80;;;22.10;73.40;;;;;;4893365;29;20120;-81
2021/08/06 11:48:07;;;;;;;1.45;0.70;;;22.10;73.70;;;;;;4858999;29;20579;-82
2021/08/06 11:50:45;;;;;;;1.15;0.65;;;22.10;73.30;;;;;;4861860;29;20065;-81
2021/08/06 11:53:14;;;;;;;0.73;0.70;;;22.20;73.40;;;;;;4874368;29;20056;-87
2021/08/06 11:55:39;;;;;;;0.73;0.70;;;22.30;73.30;;;;;;4871717;29;20125;-84
2021/08/06 11:58:05;;;;;;;0.73;0.70;;;22.40;73.20;;;;;;4876606;29;20057;-82
2021/08/06 12:00:33;;;;;;;0.77;0.70;;;22.50;72.40;;;;;;4859041;29;20053;-83
2021/08/06 12:03:12;;;;;;;3.60;0.70;;;22.50;72.30;;;;;;4863373;29;20108;-83
2021/08/06 12:05:45;;;;;;;1.13;0.50;;;22.50;72.20;;;;;;4896438;29;20069;-81
2021/08/06 12:08:15;;;;;;;0.70;0.68;;;22.50;72.20;;;;;;4894241;29;20053;-82
2021/08/06 12:10:41;;;;;;;0.52;0.52;;;22.40;72.50;;;;;;4874054;29;20037;-82
2021/08/06 12:13:11;;;;;;;0.40;0.40;;;22.30;72.80;;;;;;4891371;29;20445;-82
2021/08/06 12:15:37;;;;;;;0.65;0.65;;;22.10;73.10;;;;;;4857749;29;20508;-82
2021/08/06 12:18:19;;;;;;;0.90;0.80;;;22.00;73.40;;;;;;4871555;29;20069;-84
2021/08/06 12:20:49;;;;;;;0.73;0.73;;;21.90;73.50;;;;;;4868524;29;20032;-83
2021/08/06 12:23:18;;;;;;;0.60;0.60;;;21.70;73.60;;;;;;4853040;29;20041;-83
2021/08/06 12:26:03;;;;;;;0.90;0.88;;;21.60;73.80;;;;;;4867128;29;20492;-83
2021/08/06 12:28:30;;;;;;;0.88;0.70;;;21.30;74.40;;;;;;4879603;29;20041;-85
2021/08/06 12:31:19;;;;;;;0.60;0.60;;;20.90;75.40;;;;;;4848216;29;20044;-82
2021/08/06 12:33:48;;;;;;;0.73;0.70;;;20.60;76.40;;;;;;4865512;29;20053;-82
2021/08/06 12:36:18;;;;;;;0.50;0.50;;;20.50;76.70;;;;;;4865939;29;20049;-84
2021/08/06 12:38:46;;;;;;;0.55;0.47;;;20.50;76.90;;;;;;4878774;29;20056;-82
2021/08/06 12:41:27;;;;;;;0.35;0.35;;;20.50;76.90;;;;;;4850996;29;20522;-80
2021/08/06 12:44:05;;;;;;;;;;;20.70;76.60;;;;;;4886323;29;20068;-84
2021/08/06 12:46:30;;;;;;;0.35;0.35;;;20.90;76.20;;;;;;4859017;29;19916;-80
2021/08/06 12:49:06;;;;;;;0.50;0.50;;;21.10;75.50;;;;;;4866293;29;20044;-82
2021/08/06 12:51:34;;;;;;;0.40;0.40;;;21.20;75.10;;;;;;4879649;29;20499;-80
2021/08/06 12:54:00;;;;;;;0.60;0.50;;;21.30;74.80;;;;;;4862983;29;20117;-82
2021/08/06 12:56:26;;;;;;;0.40;0.40;;;21.40;74.40;;;;;;4849231;29;20503;-82
2021/08/06 12:59:22;;;;;;;0.77;0.60;;;21.40;74.30;;;;;;4864929;29;20048;-84
2021/08/06 13:01:49;;;;;;;0.57;0.50;;;21.50;74.30;;;;;;4861711;29;20059;-81